• Join FlightAware (Why Join?)
  • Login
  • US Flag 
06:17PM EDT


 

Airport Tracker/Info


-or-


 

Live Flight TrackerFlight Track Log ✈ TAM3444 ✈ 22-Jun-2013 ✈ SBGL / GIG - SBBR / BSB

Flight Track Log - Related Links

Times and Time Zones

All times are in EDT time to prevent confusion due to time zone crossing. See the TAM3444 flight status page for this flight to view local times or setup timezone preferences in your user account.

Time Position Orientation Groundspeed Altitude Reporting Facility
EDT Latitude Longitude Course Direction KTS MPH feet Rate Location/Type
06:41AM -21.3170 -44.2887 327° Northwest  Level Estimated
06:42AM -21.2547 -44.3318 327° Northwest  Level Estimated
06:43AM -21.1924 -44.3748 327° Northwest  Level Estimated
06:44AM -21.1301 -44.4178 327° Northwest  Level Estimated
06:45AM -21.0677 -44.4608 327° Northwest  Level Estimated
06:46AM -21.0054 -44.5037 327° Northwest  Level Estimated
06:47AM -20.9430 -44.5466 327° Northwest  Level Estimated
06:48AM -20.8807 -44.5895 327° Northwest  Level Estimated
06:49AM -20.8183 -44.6323 327° Northwest  Level Estimated
06:50AM -20.7559 -44.6751 327° Northwest  Level Estimated
06:51AM -20.6935 -44.7178 327° Northwest  Level Estimated
06:52AM -20.6311 -44.7606 327° Northwest  Level Estimated
06:53AM -20.5687 -44.8032 327° Northwest  Level Estimated
06:54AM -20.5062 -44.8459 327° Northwest  Level Estimated
06:55AM -20.4438 -44.8885 327° Northwest  Level Estimated
06:56AM -20.3813 -44.9311 327° Northwest  Level Estimated
06:57AM -20.3189 -44.9736 327° Northwest  Level Estimated
06:58AM -20.2564 -45.0161 327° Northwest  Level Estimated
06:59AM -20.1939 -45.0586 327° Northwest  Level Estimated
07:00AM -20.1314 -45.1010 327° Northwest  Level Estimated
07:01AM -20.0689 -45.1434 327° Northwest  Level Estimated
07:02AM -20.0064 -45.1858 328° Northwest  Level Estimated
07:03AM -19.9439 -45.2281 328° Northwest  Level Estimated
07:04AM -19.8814 -45.2705 328° Northwest  Level Estimated
07:05AM -19.8188 -45.3127 328° Northwest  Level Estimated
07:06AM -19.7563 -45.3550 328° Northwest  Level Estimated
07:07AM -19.6937 -45.3972 328° Northwest  Level Estimated
07:08AM -19.6312 -45.4393 328° Northwest  Level Estimated
07:09AM -19.5686 -45.4815 328° Northwest  Level Estimated
07:10AM -19.5060 -45.5236 328° Northwest  Level Estimated
07:11AM -19.4434 -45.5657 328° Northwest  Level Estimated
07:12AM -19.3808 -45.6077 328° Northwest  Level Estimated
07:13AM -19.3182 -45.6497 328° Northwest  Level Estimated
07:14AM -19.2555 -45.6917 328° Northwest  Level Estimated
07:15AM -19.1929 -45.7336 328° Northwest  Level Estimated
07:16AM -19.1302 -45.7755 328° Northwest  Level Estimated
07:17AM -19.0676 -45.8174 328° Northwest  Level Estimated
07:18AM -19.0049 -45.8593 328° Northwest  Level Estimated
07:19AM -18.9422 -45.9011 328° Northwest  Level Estimated
07:20AM -18.8795 -45.9429 328° Northwest  Level Estimated
07:21AM -18.8168 -45.9846 328° Northwest  Level Estimated
07:22AM -18.7541 -46.0263 328° Northwest  Level Estimated
07:23AM -18.6914 -46.0680 328° Northwest  Level Estimated
07:24AM -18.6287 -46.1097 328° Northwest  Level Estimated
07:25AM -18.5659 -46.1513 328° Northwest  Level Estimated
07:26AM -18.5032 -46.1929 328° Northwest  Level Estimated
07:27AM -18.4405 -46.2345 328° Northwest  Level Estimated
07:28AM -18.3777 -46.2760 328° Northwest  Level Estimated
07:29AM -18.3149 -46.3175 328° Northwest  Level Estimated
07:30AM -18.2521 -46.3590 328° Northwest  Level Estimated
07:31AM -18.1894 -46.4005 328° Northwest  Level Estimated
07:32AM -18.1266 -46.4419 328° Northwest  Level Estimated
07:33AM -18.0637 -46.4833 328° Northwest  Level Estimated
07:34AM -18.0009 -46.5246 328° Northwest  Level Estimated
07:35AM -17.9381 -46.5660 328° Northwest  Level Estimated
07:36AM -17.8753 -46.6073 328° Northwest  Level Estimated
07:37AM -17.8124 -46.6485 328° Northwest  Level Estimated
07:38AM -17.7496 -46.6898 328° Northwest  Level Estimated
07:39AM -17.6867 -46.7310 328° Northwest  Level Estimated
07:40AM -17.6238 -46.7722 328° Northwest  Level Estimated
07:41AM -17.5610 -46.8133 328° Northwest  Level Estimated
07:42AM -17.4981 -46.8545 328° Northwest  Level Estimated
07:43AM -17.4352 -46.8956 328° Northwest  Level Estimated
07:44AM -17.3723 -46.9366 328° Northwest  Level Estimated
07:45AM -17.3094 -46.9777 328° Northwest  Level Estimated
07:46AM -17.2465 -47.0187 328° Northwest  Level Estimated
07:47AM -17.1835 -47.0597 328° Northwest  Level Estimated
07:48AM -17.1206 -47.1007 328° Northwest  Level Estimated
07:49AM -17.0577 -47.1416 328° Northwest  Level Estimated
07:50AM -16.9947 -47.1825 328° Northwest  Level Estimated
07:51AM -16.9317 -47.2234 328° Northwest  Level Estimated
07:52AM -16.8688 -47.2642 328° Northwest  Level Estimated
07:53AM -16.8058 -47.3050 328° Northwest  Level Estimated
07:54AM -16.7428 -47.3458 328° Northwest  Level Estimated
07:55AM -16.6798 -47.3866 328° Northwest  Level Estimated
07:56AM -16.6168 -47.4273 328° Northwest  Level Estimated
07:57AM -16.5538 -47.4680 328° Northwest  Level Estimated
07:58AM -16.4908 -47.5087 328° Northwest  Level Estimated